createdAt,value
2019-01-26T00:00:49.591Z,87.64
2019-01-26T00:01:49.632Z,87.23
2019-01-26T00:02:49.562Z,87.64
2019-01-26T00:03:49.561Z,88.48
2019-01-26T00:04:49.532Z,89.32
2019-01-26T00:05:49.643Z,89.32
2019-01-26T00:06:49.512Z,89.84
2019-01-26T00:07:49.533Z,90.05
2019-01-26T00:08:49.503Z,89.57
2019-01-26T00:09:49.574Z,89.22
2019-01-26T00:10:49.497Z,90.05
2019-01-26T00:11:49.514Z,90.05
2019-01-26T00:12:49.454Z,89.95
2019-01-26T00:13:49.545Z,89.57
2019-01-26T00:14:49.435Z,88.52
2019-01-26T00:15:49.435Z,88.79
2019-01-26T00:16:49.416Z,87.23
2019-01-26T00:17:49.516Z,88.69
2019-01-26T00:18:49.387Z,89.42
2019-01-26T00:19:49.448Z,89.42
2019-01-26T00:20:49.468Z,90.05
2019-01-26T00:21:49.359Z,90.58
2019-01-26T00:22:49.457Z,90.05
2019-01-26T00:23:49.339Z,89.73
2019-01-26T00:24:49.388Z,89.73
2019-01-26T00:25:49.328Z,89.53
2019-01-26T00:26:49.319Z,89.32
2019-01-26T00:27:49.288Z,87.23
2019-01-26T00:28:49.360Z,85.82
2019-01-26T00:29:49.270Z,85.65
2019-01-26T00:30:49.340Z,84.78
2019-01-26T00:31:49.260Z,85.51
2019-01-26T00:32:49.232Z,86.98
2019-01-26T00:33:49.312Z,86.66
2019-01-26T00:34:49.201Z,84.99
2019-01-26T00:35:49.272Z,83.21
2019-01-26T00:36:49.303Z,83.52
2019-01-26T00:37:49.172Z,84.78
2019-01-26T00:38:49.233Z,84.99
2019-01-26T00:39:49.153Z,86.24
2019-01-26T00:40:49.213Z,85.93
2019-01-26T00:41:49.124Z,84.78
2019-01-26T00:42:49.204Z,85.51
2019-01-26T00:43:49.115Z,83.94
2019-01-26T00:44:49.156Z,82.58
2019-01-26T00:45:49.105Z,82.89
2019-01-26T00:46:49.186Z,83.42
2019-01-26T00:47:49.075Z,83.31
2019-01-26T00:48:49.126Z,83.62
2019-01-26T00:49:49.046Z,83.31
2019-01-26T00:50:49.107Z,83.73
2019-01-26T00:51:49.031Z,83.42
2019-01-26T00:52:49.017Z,83.27
2019-01-26T00:53:49.008Z,84.15
2019-01-26T00:54:49.028Z,84.67
2019-01-26T00:55:48.989Z,83.31
2019-01-26T00:56:49.011Z,84.56
2019-01-26T00:57:49.032Z,84.88
2019-01-26T00:58:48.949Z,84.25
2019-01-26T00:59:48.960Z,84.25
2019-01-26T01:00:48.930Z,84.05
2019-01-26T01:01:48.950Z,82.68
2019-01-26T01:02:48.900Z,83.21
2019-01-26T01:03:48.931Z,83.21
2019-01-26T01:04:48.871Z,83.21
2019-01-26T01:05:48.971Z,83.31
2019-01-26T01:06:48.871Z,83.73
2019-01-26T01:07:48.927Z,83.94
2019-01-26T01:08:48.837Z,83.21
2019-01-26T01:09:49.056Z,83.21
2019-01-26T01:10:48.813Z,83.21
2019-01-26T01:11:48.923Z,83.31
2019-01-26T01:12:48.783Z,82.65
2019-01-26T01:13:48.775Z,83.10
2019-01-26T01:14:48.764Z,83.42
2019-01-26T01:15:48.844Z,83.21
2019-01-26T01:16:48.755Z,83.10
2019-01-26T01:17:48.777Z,84.25
2019-01-26T01:18:48.731Z,84.15
2019-01-26T01:19:48.816Z,83.42
2019-01-26T01:20:48.767Z,83.73
2019-01-26T01:21:48.858Z,83.21
2019-01-26T01:22:48.688Z,83.83
2019-01-26T01:23:48.697Z,83.21
2019-01-26T01:24:48.669Z,83.62
2019-01-26T01:25:48.728Z,85.30
2019-01-26T01:26:48.659Z,85.41
2019-01-26T01:27:48.669Z,84.05
2019-01-26T01:28:48.621Z,83.62
2019-01-26T01:29:48.609Z,83.94
2019-01-26T01:30:48.672Z,83.62
2019-01-26T01:31:48.610Z,83.42
2019-01-26T01:32:48.603Z,83.52
2019-01-26T01:33:48.562Z,83.10
2019-01-26T01:34:48.639Z,83.42
2019-01-26T01:35:48.542Z,82.86
2019-01-26T01:36:48.623Z,83.17
2019-01-26T01:37:48.524Z,83.59
2019-01-26T01:38:48.612Z,82.54
2019-01-26T01:39:48.493Z,82.02
2019-01-26T01:40:48.474Z,83.17
2019-01-26T01:41:48.564Z,82.23
2019-01-26T01:42:48.464Z,82.65
2019-01-26T01:43:48.553Z,81.81
2019-01-26T01:44:48.434Z,80.55
2019-01-26T01:45:48.424Z,80.66
2019-01-26T01:46:48.496Z,80.83
2019-01-26T01:47:48.508Z,81.25
2019-01-26T01:48:48.486Z,81.04
2019-01-26T01:49:48.376Z,80.24
2019-01-26T01:50:48.366Z,81.07
2019-01-26T01:51:48.377Z,80.93
2019-01-26T01:52:48.458Z,81.04
2019-01-26T01:53:48.338Z,82.02
2019-01-26T01:54:48.397Z,82.54
2019-01-26T01:55:48.308Z,80.87
2019-01-26T01:56:48.388Z,81.29
2019-01-26T01:57:48.300Z,81.60
2019-01-26T01:58:48.380Z,81.60
2019-01-26T01:59:48.280Z,80.87
2019-01-26T02:00:48.310Z,82.12
2019-01-26T02:01:48.270Z,81.70
2019-01-26T02:02:48.341Z,80.93
2019-01-26T02:03:48.231Z,80.87
2019-01-26T02:04:48.282Z,80.13
2019-01-26T02:05:48.212Z,79.89
2019-01-26T02:06:48.223Z,80.10
2019-01-26T02:07:48.192Z,80.20
2019-01-26T02:08:48.252Z,80.93
2019-01-26T02:09:48.176Z,80.93
2019-01-26T02:10:49.215Z,81.25
2019-01-26T02:11:48.165Z,81.56
2019-01-26T02:12:48.224Z,81.98
2019-01-26T02:13:48.125Z,81.46
2019-01-26T02:14:48.155Z,81.35
2019-01-26T02:15:48.106Z,80.93
2019-01-26T02:16:50.207Z,79.99
2019-01-26T02:17:48.158Z,79.99
2019-01-26T02:18:48.067Z,79.99
2019-01-26T02:19:48.097Z,80.41
2019-01-26T02:20:48.037Z,79.99
2019-01-26T02:21:48.069Z,79.99
2019-01-26T02:22:48.018Z,80.52
2019-01-26T02:23:48.057Z,80.20
2019-01-26T02:24:48.001Z,80.83
2019-01-26T02:25:48.013Z,81.04
2019-01-26T02:26:47.993Z,81.25
2019-01-26T02:27:47.959Z,81.15
2019-01-26T02:28:47.949Z,81.56
2019-01-26T02:29:47.970Z,81.77
2019-01-26T02:30:47.930Z,82.19
2019-01-26T02:31:47.951Z,82.23
2019-01-26T02:32:47.915Z,81.70
2019-01-26T02:33:47.907Z,82.12
2019-01-26T02:34:47.912Z,81.67
2019-01-26T02:35:47.887Z,81.35
2019-01-26T02:36:48.002Z,81.70
2019-01-26T02:37:47.863Z,82.19
2019-01-26T02:38:47.854Z,81.77
2019-01-26T02:39:47.843Z,81.46
2019-01-26T02:40:47.924Z,81.56
2019-01-26T02:41:47.835Z,81.56
2019-01-26T02:42:47.856Z,82.19
2019-01-26T02:43:47.824Z,81.46
2019-01-26T02:44:47.786Z,81.25
2019-01-26T02:45:47.865Z,80.93
2019-01-26T02:46:47.778Z,80.62
2019-01-26T02:47:47.796Z,81.56
2019-01-26T02:48:47.736Z,80.83
2019-01-26T02:49:47.727Z,80.83
2019-01-26T02:50:47.797Z,80.93
2019-01-26T02:51:47.717Z,80.73
2019-01-26T02:52:47.739Z,80.79
2019-01-26T02:53:47.680Z,80.58
2019-01-26T02:54:47.668Z,80.62
2019-01-26T02:55:47.738Z,81.00
2019-01-26T02:56:47.680Z,81.04
2019-01-26T02:57:48.689Z,79.96
2019-01-26T02:58:47.622Z,80.48
2019-01-26T02:59:47.610Z,80.27
2019-01-26T03:00:47.600Z,80.27
2019-01-26T03:01:47.640Z,81.15
2019-01-26T03:02:47.592Z,81.21
2019-01-26T03:03:47.682Z,80.73
2019-01-26T03:04:47.552Z,80.79
2019-01-26T03:05:47.553Z,81.11
2019-01-26T03:06:47.592Z,80.58
2019-01-26T03:07:47.542Z,81.00
2019-01-26T03:08:47.633Z,80.16
2019-01-26T03:09:47.513Z,80.16
2019-01-26T03:10:47.494Z,80.90
2019-01-26T03:11:47.533Z,80.79
2019-01-26T03:12:47.494Z,81.00
2019-01-26T03:13:47.564Z,80.79
2019-01-26T03:14:47.456Z,81.32
2019-01-26T03:15:47.451Z,81.11
2019-01-26T03:16:47.436Z,81.56
2019-01-26T03:17:47.487Z,82.09
2019-01-26T03:18:47.406Z,82.19
2019-01-26T03:19:47.469Z,82.29
2019-01-26T03:20:47.387Z,82.40
2019-01-26T03:21:47.399Z,82.40
2019-01-26T03:22:47.378Z,82.60
2019-01-26T03:23:47.440Z,81.98
2019-01-26T03:24:47.349Z,82.29
2019-01-26T03:25:47.380Z,82.50
2019-01-26T03:26:47.321Z,82.19
2019-01-26T03:27:47.362Z,82.29
2019-01-26T03:28:47.291Z,82.19
2019-01-26T03:29:47.341Z,82.29
2019-01-26T03:30:47.272Z,82.19
2019-01-26T03:31:47.272Z,82.19
2019-01-26T03:32:47.265Z,82.40
2019-01-26T03:33:47.312Z,83.03
2019-01-26T03:34:47.223Z,82.71
2019-01-26T03:35:47.253Z,82.82
2019-01-26T03:36:47.204Z,82.60
2019-01-26T03:37:47.233Z,83.23
2019-01-26T03:38:47.184Z,83.80
2019-01-26T03:39:48.255Z,83.38
2019-01-26T03:40:47.162Z,83.86
2019-01-26T03:41:47.255Z,84.91
2019-01-26T03:42:47.156Z,85.05
2019-01-26T03:43:47.206Z,85.26
2019-01-26T03:44:47.127Z,85.47
2019-01-26T03:45:47.126Z,84.53
2019-01-26T03:46:47.107Z,84.53
2019-01-26T03:47:47.108Z,84.42
2019-01-26T03:48:47.078Z,84.70
2019-01-26T03:49:47.110Z,84.39
2019-01-26T03:50:47.059Z,85.58
2019-01-26T03:51:47.149Z,85.47
2019-01-26T03:52:47.158Z,85.64
2019-01-26T03:53:47.030Z,84.91
2019-01-26T03:54:47.042Z,85.12
2019-01-26T03:55:47.010Z,84.91
2019-01-26T03:56:47.082Z,85.01
2019-01-26T03:57:47.000Z,85.68
2019-01-26T03:58:46.971Z,84.59
2019-01-26T03:59:46.982Z,83.90
2019-01-26T04:00:46.954Z,85.16
2019-01-26T04:01:47.022Z,85.74
2019-01-26T04:02:46.943Z,85.36
2019-01-26T04:03:46.916Z,86.72
2019-01-26T04:04:47.943Z,86.10
2019-01-26T04:05:46.899Z,86.72
2019-01-26T04:06:46.954Z,86.83
2019-01-26T04:07:46.887Z,87.35
2019-01-26T04:08:46.855Z,87.56
2019-01-26T04:09:46.856Z,86.72
2019-01-26T04:10:46.928Z,86.72
2019-01-26T04:11:46.825Z,86.93
2019-01-26T04:12:46.908Z,86.72
2019-01-26T04:13:46.818Z,87.15
2019-01-26T04:14:46.896Z,85.78
2019-01-26T04:15:46.785Z,86.72
2019-01-26T04:16:46.837Z,85.58
2019-01-26T04:17:46.766Z,85.89
2019-01-26T04:18:46.781Z,86.62
2019-01-26T04:19:46.737Z,86.93
2019-01-26T04:20:46.819Z,87.25
2019-01-26T04:21:46.718Z,86.62
2019-01-26T04:22:46.801Z,86.93
2019-01-26T04:23:46.699Z,87.46
2019-01-26T04:24:46.689Z,87.98
2019-01-26T04:25:46.681Z,88.50
2019-01-26T04:26:46.721Z,87.25
2019-01-26T04:27:46.671Z,86.83
2019-01-26T04:28:46.651Z,86.83
2019-01-26T04:29:46.632Z,86.93
2019-01-26T04:30:46.692Z,87.04
2019-01-26T04:31:46.613Z,86.41
2019-01-26T04:32:47.704Z,86.90
2019-01-26T04:33:46.594Z,86.41
2019-01-26T04:34:46.667Z,85.96
2019-01-26T04:35:46.564Z,86.58
2019-01-26T04:36:46.595Z,85.78
2019-01-26T04:37:46.575Z,86.16
2019-01-26T04:38:46.635Z,86.41
2019-01-26T04:39:46.538Z,85.01
2019-01-26T04:40:46.516Z,85.18
2019-01-26T04:41:46.541Z,85.22
2019-01-26T04:42:46.496Z,85.01
2019-01-26T04:43:46.567Z,85.22
2019-01-26T04:44:46.457Z,85.50
2019-01-26T04:45:46.448Z,85.33
2019-01-26T04:46:46.458Z,85.33
2019-01-26T04:47:46.481Z,85.64
2019-01-26T04:48:46.421Z,84.70
2019-01-26T04:49:46.478Z,85.22
2019-01-26T04:50:46.402Z,84.97
2019-01-26T04:51:46.430Z,84.49
2019-01-26T04:52:46.392Z,83.97
2019-01-26T04:53:46.440Z,85.12
2019-01-26T04:54:46.351Z,83.83
2019-01-26T04:55:46.380Z,84.66
2019-01-26T04:56:46.342Z,84.34
2019-01-26T04:57:46.371Z,83.51
2019-01-26T04:58:46.322Z,83.93
2019-01-26T04:59:47.383Z,83.40
2019-01-26T05:00:46.292Z,82.99
2019-01-26T05:01:46.282Z,83.30
2019-01-26T05:02:46.283Z,84.03
2019-01-26T05:03:46.334Z,83.62
2019-01-26T05:04:46.263Z,84.03
2019-01-26T05:05:46.263Z,84.45
2019-01-26T05:06:46.235Z,83.83
2019-01-26T05:07:46.234Z,83.30
2019-01-26T05:08:46.204Z,83.83
2019-01-26T05:09:46.234Z,83.62
2019-01-26T05:10:46.187Z,85.18
2019-01-26T05:11:46.276Z,84.87
2019-01-26T05:12:46.195Z,84.34
2019-01-26T05:13:46.206Z,84.45
2019-01-26T05:14:46.137Z,84.97
2019-01-26T05:15:46.150Z,83.93
2019-01-26T05:16:46.116Z,83.68
2019-01-26T05:17:46.107Z,83.26
2019-01-26T05:18:46.098Z,83.20
2019-01-26T05:19:46.118Z,84.00
2019-01-26T05:20:46.068Z,83.78
2019-01-26T05:21:46.150Z,84.66
2019-01-26T05:22:46.120Z,83.51
2019-01-26T05:23:46.063Z,83.47
2019-01-26T05:24:46.059Z,83.06
2019-01-26T05:25:46.012Z,83.06
2019-01-26T05:26:46.091Z,83.37
2019-01-26T05:27:45.993Z,83.16
2019-01-26T05:28:46.072Z,83.58
2019-01-26T05:29:45.981Z,83.26
2019-01-26T05:30:46.063Z,83.23
2019-01-26T05:31:45.952Z,83.47
2019-01-26T05:32:46.013Z,83.23
2019-01-26T05:33:45.954Z,83.68
2019-01-26T05:34:45.943Z,83.58
2019-01-26T05:35:45.914Z,83.75
2019-01-26T05:36:45.983Z,83.54
2019-01-26T05:37:45.884Z,83.68
2019-01-26T05:38:45.895Z,84.17
2019-01-26T05:39:45.866Z,84.94
2019-01-26T05:40:45.955Z,84.83
2019-01-26T05:41:45.846Z,84.83
2019-01-26T05:42:45.886Z,84.20
2019-01-26T05:43:45.837Z,84.31
2019-01-26T05:44:46.847Z,84.62
2019-01-26T05:45:45.797Z,85.04
2019-01-26T05:46:45.857Z,84.27
2019-01-26T05:47:48.799Z,84.83
2019-01-26T05:48:45.848Z,85.21
2019-01-26T05:49:45.749Z,85.46
2019-01-26T05:50:45.828Z,85.67
2019-01-26T05:51:45.739Z,86.29
2019-01-26T05:52:45.769Z,86.77
2019-01-26T05:53:45.730Z,86.71
2019-01-26T05:54:45.700Z,86.71
2019-01-26T05:55:45.690Z,86.82
2019-01-26T05:56:45.740Z,86.61
2019-01-26T05:57:45.661Z,87.13
2019-01-26T05:58:46.741Z,86.82
2019-01-26T05:59:45.641Z,86.46
2019-01-26T06:00:45.713Z,86.57
2019-01-26T06:01:45.623Z,86.61
2019-01-26T06:02:45.647Z,86.71
2019-01-26T06:03:45.613Z,87.02
2019-01-26T06:04:45.683Z,86.99
2019-01-26T06:05:45.574Z,87.13
2019-01-26T06:06:45.625Z,86.82
2019-01-26T06:07:45.565Z,87.30
2019-01-26T06:08:45.604Z,87.13
2019-01-26T06:09:45.545Z,87.19
2019-01-26T06:10:45.527Z,87.23
2019-01-26T06:11:45.567Z,87.23
2019-01-26T06:12:45.508Z,86.88
2019-01-26T06:13:45.550Z,87.19
2019-01-26T06:14:45.487Z,87.34
2019-01-26T06:15:45.479Z,86.67
2019-01-26T06:16:45.500Z,86.67
2019-01-26T06:17:45.479Z,86.92
2019-01-26T06:18:45.458Z,87.09
2019-01-26T06:19:45.510Z,87.23
2019-01-26T06:20:45.418Z,86.88
2019-01-26T06:21:45.459Z,86.71
2019-01-26T06:22:45.399Z,86.99
2019-01-26T06:23:46.829Z,87.65
2019-01-26T06:24:45.380Z,87.30
2019-01-26T06:25:45.421Z,87.55
2019-01-26T06:26:45.370Z,88.24
2019-01-26T06:27:45.353Z,87.51
2019-01-26T06:28:45.344Z,87.93
2019-01-26T06:29:45.393Z,88.34
2019-01-26T06:30:45.304Z,88.24
2019-01-26T06:31:45.314Z,87.40
2019-01-26T06:32:45.283Z,86.77
2019-01-26T06:33:45.311Z,86.77
2019-01-26T06:34:45.253Z,87.61
2019-01-26T06:35:45.294Z,88.24
2019-01-26T06:36:45.245Z,87.82
2019-01-26T06:37:45.346Z,87.71
2019-01-26T06:38:45.225Z,87.71
2019-01-26T06:39:45.265Z,87.71
2019-01-26T06:40:45.187Z,87.61
2019-01-26T06:41:45.207Z,88.65
2019-01-26T06:42:45.169Z,88.65
2019-01-26T06:43:45.299Z,88.03
2019-01-26T06:44:45.148Z,88.65
2019-01-26T06:45:45.178Z,88.97
2019-01-26T06:46:45.138Z,89.28
2019-01-26T06:47:45.131Z,89.39
2019-01-26T06:48:45.230Z,89.07
2019-01-26T06:49:45.098Z,89.18
2019-01-26T06:50:45.119Z,89.59
2019-01-26T06:51:45.079Z,89.18
2019-01-26T06:52:45.072Z,88.34
2019-01-26T06:53:45.081Z,87.88
2019-01-26T06:54:45.090Z,87.37
2019-01-26T06:55:45.031Z,87.57
2019-01-26T06:56:46.041Z,87.57
2019-01-26T06:57:45.012Z,87.47
2019-01-26T06:58:45.022Z,87.78
2019-01-26T06:59:45.022Z,87.99
2019-01-26T07:00:44.982Z,88.30
2019-01-26T07:01:45.063Z,88.45
2019-01-26T07:02:44.962Z,88.41
2019-01-26T07:03:46.095Z,88.62
2019-01-26T07:04:44.955Z,88.93
2019-01-26T07:05:45.034Z,88.51
2019-01-26T07:06:44.915Z,88.72
2019-01-26T07:07:44.976Z,88.72
2019-01-26T07:08:44.915Z,88.82
2019-01-26T07:09:44.895Z,87.99
2019-01-26T07:10:44.866Z,88.72
2019-01-26T07:11:44.938Z,87.78
2019-01-26T07:12:44.836Z,87.68
2019-01-26T07:13:44.866Z,88.62
2019-01-26T07:14:44.837Z,88.20
2019-01-26T07:15:44.910Z,88.20
2019-01-26T07:16:44.797Z,88.37
2019-01-26T07:17:45.868Z,87.99
2019-01-26T07:18:44.779Z,87.99
2019-01-26T07:19:44.779Z,88.06
2019-01-26T07:20:44.859Z,88.16
2019-01-26T07:21:44.760Z,87.53
2019-01-26T07:22:45.809Z,87.12
2019-01-26T07:23:44.731Z,87.12
2019-01-26T07:24:44.730Z,87.01
2019-01-26T07:25:44.712Z,86.69
2019-01-26T07:26:44.761Z,87.12
2019-01-26T07:27:44.684Z,87.32
2019-01-26T07:28:44.692Z,88.57
2019-01-26T07:29:44.683Z,87.53
2019-01-26T07:30:44.652Z,87.63
2019-01-26T07:31:44.702Z,87.43
2019-01-26T07:32:44.633Z,87.63
2019-01-26T07:33:44.637Z,86.80
2019-01-26T07:34:44.623Z,86.59
2019-01-26T07:35:44.594Z,86.49
2019-01-26T07:36:44.597Z,86.55
2019-01-26T07:37:44.607Z,86.55
2019-01-26T07:38:44.568Z,86.35
2019-01-26T07:39:44.575Z,86.55
2019-01-26T07:40:44.606Z,86.45
2019-01-26T07:41:44.526Z,86.45
2019-01-26T07:42:44.546Z,86.03
2019-01-26T07:43:44.498Z,86.13
2019-01-26T07:44:44.517Z,86.66
2019-01-26T07:45:44.477Z,87.39
2019-01-26T07:46:45.542Z,86.55
2019-01-26T07:47:44.458Z,86.45
2019-01-26T07:48:44.602Z,86.55
2019-01-26T07:49:44.450Z,85.10
2019-01-26T07:50:44.480Z,85.51
2019-01-26T07:51:44.410Z,86.20
2019-01-26T07:52:44.430Z,85.58
2019-01-26T07:53:44.391Z,86.30
2019-01-26T07:54:44.500Z,86.41
2019-01-26T07:55:44.376Z,85.36
2019-01-26T07:56:44.382Z,85.68
2019-01-26T07:57:44.371Z,85.89
2019-01-26T07:58:44.422Z,85.43
2019-01-26T07:59:44.342Z,86.30
2019-01-26T08:00:44.373Z,85.36
2019-01-26T08:01:44.313Z,85.26
2019-01-26T08:02:44.403Z,84.70
2019-01-26T08:03:44.295Z,84.70
2019-01-26T08:04:44.394Z,83.97
2019-01-26T08:05:44.274Z,85.02
2019-01-26T08:06:44.375Z,85.02
2019-01-26T08:07:44.248Z,84.50
2019-01-26T08:08:44.316Z,84.91
2019-01-26T08:09:44.246Z,84.91
2019-01-26T08:10:44.249Z,84.91
2019-01-26T08:11:44.206Z,84.91
2019-01-26T08:12:44.197Z,84.70
2019-01-26T08:13:44.188Z,84.87
2019-01-26T08:14:44.268Z,84.56
2019-01-26T08:15:44.168Z,83.62
2019-01-26T08:16:44.248Z,84.77
2019-01-26T08:17:44.139Z,84.35
2019-01-26T08:18:44.189Z,83.90
2019-01-26T08:19:44.120Z,84.66
2019-01-26T08:20:44.120Z,83.83
2019-01-26T08:21:44.101Z,84.66
2019-01-26T08:22:44.160Z,84.77
2019-01-26T08:23:44.063Z,84.66
2019-01-26T08:24:44.676Z,84.66
2019-01-26T08:25:44.042Z,84.35
2019-01-26T08:26:44.132Z,84.87
2019-01-26T08:27:44.022Z,83.94
2019-01-26T08:28:44.013Z,84.04
2019-01-26T08:29:44.073Z,83.31
2019-01-26T08:30:43.994Z,83.69
2019-01-26T08:31:44.066Z,83.83
2019-01-26T08:32:43.964Z,83.94
2019-01-26T08:33:43.954Z,84.87
2019-01-26T08:34:43.975Z,84.87
2019-01-26T08:35:44.035Z,85.08
2019-01-26T08:36:43.936Z,84.66
2019-01-26T08:37:43.987Z,84.56
2019-01-26T08:38:43.916Z,85.19
2019-01-26T08:39:43.967Z,84.98
2019-01-26T08:40:43.890Z,84.98
2019-01-26T08:41:43.957Z,84.87
2019-01-26T08:42:43.868Z,85.50
2019-01-26T08:43:44.908Z,84.87
2019-01-26T08:44:43.858Z,85.19
2019-01-26T08:45:43.921Z,84.63
2019-01-26T08:46:43.829Z,85.14
2019-01-26T08:47:43.862Z,85.04
2019-01-26T08:48:43.799Z,84.83
2019-01-26T08:49:43.810Z,84.73
2019-01-26T08:50:43.790Z,84.73
2019-01-26T08:51:43.833Z,84.63
2019-01-26T08:52:43.761Z,84.42
2019-01-26T08:53:43.764Z,84.31
2019-01-26T08:54:43.757Z,84.42
2019-01-26T08:55:43.802Z,84.63
2019-01-26T08:56:43.713Z,83.90
2019-01-26T08:57:43.736Z,84.73
2019-01-26T08:58:43.694Z,84.73
2019-01-26T08:59:43.723Z,84.83
2019-01-26T09:00:43.667Z,84.63
2019-01-26T09:01:43.705Z,84.83
2019-01-26T09:02:43.645Z,83.90
2019-01-26T09:03:44.667Z,84.31
2019-01-26T09:04:43.635Z,84.31
2019-01-26T09:05:43.606Z,84.17
2019-01-26T09:06:43.596Z,84.00
2019-01-26T09:07:43.606Z,84.94
2019-01-26T09:08:43.577Z,85.00
2019-01-26T09:09:43.697Z,84.90
2019-01-26T09:10:43.628Z,84.80
2019-01-26T09:11:43.568Z,84.06
2019-01-26T09:12:43.651Z,84.69
2019-01-26T09:13:43.531Z,83.86
2019-01-26T09:14:43.639Z,84.63
2019-01-26T09:15:43.509Z,84.63
2019-01-26T09:16:43.531Z,84.63
2019-01-26T09:17:43.489Z,84.31
2019-01-26T09:18:43.572Z,84.31
2019-01-26T09:19:43.472Z,84.38
2019-01-26T09:20:43.553Z,84.69
2019-01-26T09:21:43.442Z,84.48
2019-01-26T09:22:43.544Z,84.06
2019-01-26T09:23:43.423Z,84.59
2019-01-26T09:24:43.473Z,84.69
2019-01-26T09:25:43.424Z,84.59
2019-01-26T09:26:43.395Z,84.48
2019-01-26T09:27:43.383Z,85.04
2019-01-26T09:28:43.445Z,85.21
2019-01-26T09:29:43.364Z,85.11
2019-01-26T09:30:43.424Z,84.90
2019-01-26T09:31:43.335Z,84.38
2019-01-26T09:32:43.415Z,84.17
2019-01-26T09:33:43.315Z,84.80
2019-01-26T09:34:43.348Z,84.65
2019-01-26T09:35:43.317Z,84.75
2019-01-26T09:36:43.387Z,84.48
2019-01-26T09:37:43.278Z,84.44
2019-01-26T09:38:43.318Z,84.44
2019-01-26T09:39:43.250Z,84.65
2019-01-26T09:40:43.516Z,84.65
2019-01-26T09:41:43.220Z,85.17
2019-01-26T09:42:43.209Z,85.17
2019-01-26T09:43:43.210Z,84.65
2019-01-26T09:44:43.232Z,84.86
2019-01-26T09:45:43.198Z,84.34
2019-01-26T09:46:43.264Z,84.75
2019-01-26T09:47:43.241Z,84.44
2019-01-26T09:48:46.349Z,84.86
2019-01-26T09:49:43.162Z,84.65
2019-01-26T09:50:43.141Z,84.96
2019-01-26T09:51:43.221Z,84.44
2019-01-26T09:52:43.214Z,84.72
2019-01-26T09:53:43.132Z,84.44
2019-01-26T09:54:43.094Z,84.44
2019-01-26T09:55:43.113Z,84.13
2019-01-26T09:56:43.066Z,84.92
2019-01-26T09:57:43.115Z,84.41
2019-01-26T09:58:44.105Z,84.92
2019-01-26T09:59:43.035Z,85.17
2019-01-26T10:00:43.066Z,84.92
2019-01-26T10:01:43.016Z,85.13
2019-01-26T10:02:43.056Z,84.82
2019-01-26T10:03:43.017Z,85.24
2019-01-26T10:04:42.977Z,85.38
2019-01-26T10:05:44.027Z,85.34
2019-01-26T10:06:42.958Z,86.07
2019-01-26T10:07:42.988Z,85.75
2019-01-26T10:08:42.958Z,86.07
2019-01-26T10:09:42.928Z,85.24
2019-01-26T10:10:43.051Z,85.24
2019-01-26T10:11:42.909Z,85.13
2019-01-26T10:12:42.931Z,84.78
2019-01-26T10:13:42.880Z,84.68
2019-01-26T10:14:42.960Z,85.24
2019-01-26T10:15:42.882Z,86.03
2019-01-26T10:16:42.902Z,85.72
2019-01-26T10:17:45.875Z,85.72
2019-01-26T10:18:42.932Z,85.61
2019-01-26T10:19:42.825Z,85.82
2019-01-26T10:20:42.924Z,85.72
2019-01-26T10:21:42.784Z,86.13
2019-01-26T10:22:42.804Z,85.93
2019-01-26T10:23:42.764Z,85.93
2019-01-26T10:24:42.755Z,86.34
2019-01-26T10:25:48.537Z,85.82
2019-01-26T10:26:43.810Z,85.82
2019-01-26T10:27:42.735Z,85.72
2019-01-26T10:28:42.817Z,85.93
2019-01-26T10:29:42.697Z,85.72
2019-01-26T10:30:42.797Z,86.34
2019-01-26T10:31:44.164Z,86.03
2019-01-26T10:32:42.677Z,86.13
2019-01-26T10:33:42.658Z,86.34
2019-01-26T10:34:42.718Z,86.44
2019-01-26T10:35:42.659Z,86.65
2019-01-26T10:36:42.660Z,86.65
2019-01-26T10:37:42.619Z,87.17
2019-01-26T10:38:42.701Z,87.17
2019-01-26T10:39:42.603Z,87.69
2019-01-26T10:40:42.601Z,87.79
2019-01-26T10:41:42.601Z,88.00
2019-01-26T10:42:42.571Z,87.84
2019-01-26T10:43:42.641Z,88.15
2019-01-26T10:44:42.552Z,87.73
2019-01-26T10:45:42.551Z,87.73
2019-01-26T10:46:42.523Z,88.21
2019-01-26T10:47:42.613Z,87.79
2019-01-26T10:48:42.503Z,87.17
2019-01-26T10:49:42.544Z,87.38
2019-01-26T10:50:42.495Z,87.48
2019-01-26T10:51:42.577Z,88.42
2019-01-26T10:52:42.466Z,87.17
2019-01-26T10:53:42.516Z,87.24
2019-01-26T10:54:42.435Z,86.51
2019-01-26T10:55:42.496Z,86.86
2019-01-26T10:56:42.417Z,86.82
2019-01-26T10:57:42.486Z,87.07
2019-01-26T10:58:42.399Z,86.72
2019-01-26T10:59:42.417Z,86.65
2019-01-26T11:00:42.389Z,86.86
2019-01-26T11:01:42.369Z,86.72
2019-01-26T11:02:42.339Z,86.41
2019-01-26T11:03:42.391Z,86.41
2019-01-26T11:04:42.326Z,86.09
2019-01-26T11:05:42.369Z,86.19
2019-01-26T11:06:42.299Z,86.41
2019-01-26T11:07:42.360Z,86.09
2019-01-26T11:08:42.281Z,86.19
2019-01-26T11:09:42.291Z,86.09
2019-01-26T11:10:42.272Z,85.99
2019-01-26T11:11:42.373Z,85.99
2019-01-26T11:12:42.233Z,85.99
2019-01-26T11:13:42.262Z,86.30
2019-01-26T11:14:42.223Z,86.26
2019-01-26T11:15:42.263Z,86.26
2019-01-26T11:16:42.206Z,86.36
2019-01-26T11:17:42.195Z,86.36
2019-01-26T11:18:43.235Z,85.33
2019-01-26T11:19:42.164Z,84.81
2019-01-26T11:20:42.255Z,84.81
2019-01-26T11:21:42.165Z,84.67
2019-01-26T11:22:42.136Z,84.60
2019-01-26T11:23:42.127Z,84.56
2019-01-26T11:24:42.227Z,84.19
2019-01-26T11:25:42.107Z,84.81
2019-01-26T11:26:48.938Z,84.50
2019-01-26T11:27:43.080Z,84.81
2019-01-26T11:28:42.088Z,84.50
2019-01-26T11:29:42.059Z,84.88
2019-01-26T11:30:42.130Z,84.25
2019-01-26T11:31:42.049Z,84.67
2019-01-26T11:32:42.059Z,84.25
2019-01-26T11:33:42.030Z,84.25
2019-01-26T11:34:42.000Z,84.36
2019-01-26T11:35:42.072Z,84.36
2019-01-26T11:36:42.001Z,84.36
2019-01-26T11:37:42.002Z,84.46
2019-01-26T11:38:42.072Z,84.25
2019-01-26T11:39:41.955Z,84.15
2019-01-26T11:40:42.003Z,84.56
2019-01-26T11:41:41.935Z,84.15
2019-01-26T11:42:41.943Z,84.25
2019-01-26T11:43:41.894Z,84.15
2019-01-26T11:44:41.974Z,83.94
2019-01-26T11:45:41.874Z,84.05
2019-01-26T11:46:41.961Z,84.46
2019-01-26T11:47:41.855Z,84.46
2019-01-26T11:48:41.945Z,84.46
2019-01-26T11:49:41.836Z,84.77
2019-01-26T11:50:41.910Z,84.77
2019-01-26T11:51:41.837Z,84.46
2019-01-26T11:52:41.837Z,84.77
2019-01-26T11:53:41.787Z,83.84
2019-01-26T11:54:41.778Z,84.77
2019-01-26T11:55:41.818Z,84.77
2019-01-26T11:56:41.780Z,84.05
2019-01-26T11:57:41.757Z,84.56
2019-01-26T11:58:41.740Z,84.15
2019-01-26T11:59:41.790Z,84.36
2019-01-26T12:00:41.725Z,84.15
2019-01-26T12:01:41.782Z,83.84
2019-01-26T12:02:41.701Z,84.05
2019-01-26T12:03:41.772Z,84.21
2019-01-26T12:04:41.683Z,84.25
2019-01-26T12:05:41.673Z,84.56
2019-01-26T12:06:41.723Z,84.67
2019-01-26T12:07:41.648Z,84.21
2019-01-26T12:08:41.713Z,84.25
2019-01-26T12:09:41.624Z,84.21
2019-01-26T12:10:41.614Z,84.46
2019-01-26T12:11:41.665Z,84.42
2019-01-26T12:12:41.595Z,84.56
2019-01-26T12:13:41.645Z,84.31
2019-01-26T12:14:41.566Z,84.05
2019-01-26T12:15:41.556Z,83.90
2019-01-26T12:16:41.568Z,84.46
2019-01-26T12:17:41.617Z,84.73
2019-01-26T12:18:41.527Z,84.00
2019-01-26T12:19:41.558Z,84.42
2019-01-26T12:20:41.511Z,84.77
2019-01-26T12:21:41.559Z,84.67
2019-01-26T12:22:41.558Z,84.31
2019-01-26T12:23:41.470Z,84.11
2019-01-26T12:24:42.519Z,84.52
2019-01-26T12:25:41.441Z,84.21
2019-01-26T12:26:41.441Z,84.31
2019-01-26T12:27:41.430Z,84.42
2019-01-26T12:28:41.461Z,84.52
2019-01-26T12:29:41.401Z,84.52
2019-01-26T12:30:41.503Z,84.63
2019-01-26T12:31:41.373Z,83.80
2019-01-26T12:32:41.382Z,83.69
2019-01-26T12:33:41.423Z,84.00
2019-01-26T12:34:41.345Z,84.00
2019-01-26T12:35:41.444Z,84.00
2019-01-26T12:36:41.325Z,84.11
2019-01-26T12:37:41.326Z,84.21
2019-01-26T12:38:41.295Z,84.11
2019-01-26T12:39:41.305Z,83.80
2019-01-26T12:40:41.265Z,84.00
2019-01-26T12:41:41.371Z,84.21
2019-01-26T12:42:41.366Z,84.17
2019-01-26T12:43:41.258Z,84.17
2019-01-26T12:44:41.358Z,84.28
2019-01-26T12:45:41.229Z,83.34
2019-01-26T12:46:41.298Z,83.24
2019-01-26T12:47:41.228Z,84.31
2019-01-26T12:48:41.199Z,83.65
2019-01-26T12:49:41.300Z,83.14
2019-01-26T12:50:41.166Z,82.82
2019-01-26T12:51:41.240Z,83.55
2019-01-26T12:52:41.170Z,83.97